sensor_id;sensor_type;location;lat;lon;timestamp;pressure;altitude;pressure_sealevel;temperature;humidity
49459;BME280;35354;51.296;16.924;2022-10-12T00:01:57;100652.28;;;5.39;100.00
49459;BME280;35354;51.296;16.924;2022-10-12T00:04:22;100642.00;;;5.34;100.00
49459;BME280;35354;51.296;16.924;2022-10-12T00:06:47;100653.19;;;5.35;100.00
49459;BME280;35354;51.296;16.924;2022-10-12T00:09:13;100643.78;;;5.26;100.00
49459;BME280;35354;51.296;16.924;2022-10-12T00:11:38;100656.69;;;5.29;100.00
49459;BME280;35354;51.296;16.924;2022-10-12T00:14:05;100665.28;;;5.30;100.00
49459;BME280;35354;51.296;16.924;2022-10-12T00:16:30;100647.22;;;5.26;100.00
49459;BME280;35354;51.296;16.924;2022-10-12T00:18:57;100632.66;;;5.19;100.00
49459;BME280;35354;51.296;16.924;2022-10-12T00:21:23;100651.59;;;5.23;100.00
49459;BME280;35354;51.296;16.924;2022-10-12T00:23:49;100656.69;;;5.26;100.00
49459;BME280;35354;51.296;16.924;2022-10-12T00:26:17;100649.00;;;5.23;100.00
49459;BME280;35354;51.296;16.924;2022-10-12T00:28:43;100655.84;;;5.27;100.00
49459;BME280;35354;51.296;16.924;2022-10-12T00:31:14;100656.69;;;5.26;100.00
49459;BME280;35354;51.296;16.924;2022-10-12T00:33:41;100661.91;;;5.23;100.00
49459;BME280;35354;51.296;16.924;2022-10-12T00:36:26;100659.34;;;5.20;100.00
49459;BME280;35354;51.296;16.924;2022-10-12T00:38:54;100655.97;;;5.15;100.00
49459;BME280;35354;51.296;16.924;2022-10-12T00:41:23;100652.47;;;5.17;100.00
49459;BME280;35354;51.296;16.924;2022-10-12T00:43:49;100651.66;;;5.12;100.00
49459;BME280;35354;51.296;16.924;2022-10-12T00:48:45;100660.25;;;5.16;100.00
49459;BME280;35354;51.296;16.924;2022-10-12T00:51:13;100662.00;;;5.11;100.00
49459;BME280;35354;51.296;16.924;2022-10-12T00:53:44;100635.47;;;4.95;100.00
49459;BME280;35354;51.296;16.924;2022-10-12T00:56:17;100659.50;;;5.02;100.00
49459;BME280;35354;51.296;16.924;2022-10-12T00:58:44;100650.88;;;5.01;100.00
49459;BME280;35354;51.296;16.924;2022-10-12T01:01:10;100659.56;;;4.94;100.00
49459;BME280;35354;51.296;16.924;2022-10-12T01:03:36;100665.59;;;4.94;100.00
49459;BME280;35354;51.296;16.924;2022-10-12T01:06:02;100664.72;;;4.92;100.00
49459;BME280;35354;51.296;16.924;2022-10-12T01:08:28;100663.91;;;4.87;100.00
49459;BME280;35354;51.296;16.924;2022-10-12T01:10:53;100664.75;;;4.89;100.00
49459;BME280;35354;51.296;16.924;2022-10-12T01:13:19;100655.28;;;4.88;100.00
49459;BME280;35354;51.296;16.924;2022-10-12T01:16:14;100660.44;;;4.88;100.00
49459;BME280;35354;51.296;16.924;2022-10-12T01:18:49;100639.88;;;4.79;100.00
49459;BME280;35354;51.296;16.924;2022-10-12T01:21:20;100637.28;;;4.76;100.00
49459;BME280;35354;51.296;16.924;2022-10-12T01:24:06;100661.31;;;4.87;100.00
49459;BME280;35354;51.296;16.924;2022-10-12T01:32:27;100646.84;;;4.66;100.00
49459;BME280;35354;51.296;16.924;2022-10-12T01:35:04;100663.19;;;4.68;100.00
49459;BME280;35354;51.296;16.924;2022-10-12T01:43:21;100654.66;;;4.56;100.00
49459;BME280;35354;51.296;16.924;2022-10-12T01:45:48;100658.09;;;4.53;100.00
49459;BME280;35354;51.296;16.924;2022-10-12T01:48:13;100659.84;;;4.51;100.00
49459;BME280;35354;51.296;16.924;2022-10-12T01:50:48;100661.56;;;4.52;100.00
49459;BME280;35354;51.296;16.924;2022-10-12T01:53:25;100650.41;;;4.48;100.00
49459;BME280;35354;51.296;16.924;2022-10-12T01:56:10;100656.38;;;4.50;100.00
49459;BME280;35354;51.296;16.924;2022-10-12T01:58:55;100658.13;;;4.52;100.00
49459;BME280;35354;51.296;16.924;2022-10-12T02:01:41;100652.97;;;4.52;100.00
49459;BME280;35354;51.296;16.924;2022-10-12T02:04:18;100664.13;;;4.50;100.00
49459;BME280;35354;51.296;16.924;2022-10-12T02:06:53;100641.84;;;4.43;100.00
49459;BME280;35354;51.296;16.924;2022-10-12T02:09:27;100642.69;;;4.44;100.00
49459;BME280;35354;51.296;16.924;2022-10-12T02:11:55;100655.50;;;4.56;100.00
49459;BME280;35354;51.296;16.924;2022-10-12T02:14:26;100653.78;;;4.57;100.00
49459;BME280;35354;51.296;16.924;2022-10-12T02:16:59;100656.38;;;4.55;100.00
49459;BME280;35354;51.296;16.924;2022-10-12T02:19:30;100648.66;;;4.52;100.00
49459;BME280;35354;51.296;16.924;2022-10-12T02:21:59;100660.66;;;4.55;100.00
49459;BME280;35354;51.296;16.924;2022-10-12T02:24:27;100649.53;;;4.48;100.00
49459;BME280;35354;51.296;16.924;2022-10-12T02:26:53;100649.53;;;4.48;100.00
49459;BME280;35354;51.296;16.924;2022-10-12T02:29:22;100658.13;;;4.48;100.00
49459;BME280;35354;51.296;16.924;2022-10-12T02:31:51;100665.00;;;4.53;100.00
49459;BME280;35354;51.296;16.924;2022-10-12T02:34:52;100654.66;;;4.53;100.00
49459;BME280;35354;51.296;16.924;2022-10-12T02:37:39;100658.97;;;4.52;100.00
49459;BME280;35354;51.296;16.924;2022-10-12T02:40:21;100654.66;;;4.54;100.00
49459;BME280;35354;51.296;16.924;2022-10-12T02:42:55;100658.97;;;4.54;100.00
49459;BME280;35354;51.296;16.924;2022-10-12T02:45:23;100641.81;;;4.45;100.00
49459;BME280;35354;51.296;16.924;2022-10-12T02:47:51;100657.28;;;4.51;100.00
49459;BME280;35354;51.296;16.924;2022-10-12T02:50:19;100652.13;;;4.48;100.00
49459;BME280;35354;51.296;16.924;2022-10-12T02:52:45;100645.25;;;4.47;100.00
49459;BME280;35354;51.296;16.924;2022-10-12T02:55:12;100652.09;;;4.49;100.00
49459;BME280;35354;51.296;16.924;2022-10-12T02:57:37;100640.13;;;4.41;100.00
49459;BME280;35354;51.296;16.924;2022-10-12T03:00:03;100650.44;;;4.44;100.00
49459;BME280;35354;51.296;16.924;2022-10-12T03:02:29;100641.81;;;4.42;100.00
49459;BME280;35354;51.296;16.924;2022-10-12T03:04:54;100644.38;;;4.45;100.00
49459;BME280;35354;51.296;16.924;2022-10-12T03:07:19;100640.94;;;4.47;100.00
49459;BME280;35354;51.296;16.924;2022-10-12T03:09:45;100636.66;;;4.42;100.00
49459;BME280;35354;51.296;16.924;2022-10-12T03:12:10;100637.50;;;4.42;100.00
49459;BME280;35354;51.296;16.924;2022-10-12T03:14:35;100656.38;;;4.50;100.00
49459;BME280;35354;51.296;16.924;2022-10-12T03:17:02;100646.13;;;4.44;100.00
49459;BME280;35354;51.296;16.924;2022-10-12T03:19:27;100644.41;;;4.42;100.00
49459;BME280;35354;51.296;16.924;2022-10-12T03:21:52;100642.69;;;4.38;100.00
49459;BME280;35354;51.296;16.924;2022-10-12T03:24:18;100648.75;;;4.35;100.00
49459;BME280;35354;51.296;16.924;2022-10-12T03:26:43;100650.50;;;4.30;100.00
49459;BME280;35354;51.296;16.924;2022-10-12T03:29:08;100656.50;;;4.32;100.00
49459;BME280;35354;51.296;16.924;2022-10-12T03:31:34;100647.91;;;4.25;100.00
49459;BME280;35354;51.296;16.924;2022-10-12T03:33:59;100652.22;;;4.27;100.00
49459;BME280;35354;51.296;16.924;2022-10-12T03:36:25;100660.81;;;4.27;100.00
49459;BME280;35354;51.296;16.924;2022-10-12T03:38:50;100639.41;;;4.14;100.00
49459;BME280;35354;51.296;16.924;2022-10-12T03:41:15;100650.56;;;4.15;100.00
49459;BME280;35354;51.296;16.924;2022-10-12T03:43:41;100655.72;;;4.12;100.00
49459;BME280;35354;51.296;16.924;2022-10-12T03:46:06;100660.03;;;4.14;100.00
49459;BME280;35354;51.296;16.924;2022-10-12T03:48:31;100659.16;;;4.11;100.00
49459;BME280;35354;51.296;16.924;2022-10-12T03:50:57;100654.88;;;4.08;100.00
49459;BME280;35354;51.296;16.924;2022-10-12T03:53:22;100657.44;;;4.11;100.00
49459;BME280;35354;51.296;16.924;2022-10-12T03:55:48;100649.75;;;4.07;100.00
49459;BME280;35354;51.296;16.924;2022-10-12T03:58:13;100661.78;;;4.09;100.00
49459;BME280;35354;51.296;16.924;2022-10-12T04:00:39;100642.03;;;3.94;100.00
49459;BME280;35354;51.296;16.924;2022-10-12T04:03:04;100656.63;;;4.05;100.00
49459;BME280;35354;51.296;16.924;2022-10-12T04:05:30;100650.59;;;4.07;100.00
49459;BME280;35354;51.296;16.924;2022-10-12T04:07:56;100648.03;;;3.99;100.00
49459;BME280;35354;51.296;16.924;2022-10-12T04:10:21;100656.63;;;3.98;100.00
49459;BME280;35354;51.296;16.924;2022-10-12T04:12:47;100654.09;;;3.97;100.00
49459;BME280;35354;51.296;16.924;2022-10-12T04:15:13;100668.63;;;4.04;100.00
49459;BME280;35354;51.296;16.924;2022-10-12T04:17:38;100646.34;;;3.95;100.00
49459;BME280;35354;51.296;16.924;2022-10-12T04:20:04;100661.78;;;4.05;100.00
49459;BME280;35354;51.296;16.924;2022-10-12T04:22:30;100655.78;;;3.99;100.00
49459;BME280;35354;51.296;16.924;2022-10-12T04:24:55;100664.34;;;4.00;100.00
49459;BME280;35354;51.296;16.924;2022-10-12T04:27:20;100654.94;;;3.91;100.00
49459;BME280;35354;51.296;16.924;2022-10-12T04:29:46;100668.69;;;3.95;100.00
49459;BME280;35354;51.296;16.924;2022-10-12T04:32:11;100673.00;;;3.93;100.00
49459;BME280;35354;51.296;16.924;2022-10-12T04:34:36;100661.84;;;3.86;100.00
49459;BME280;35354;51.296;16.924;2022-10-12T04:37:02;100666.13;;;3.83;100.00
49459;BME280;35354;51.296;16.924;2022-10-12T04:39:28;100653.28;;;3.72;100.00
49459;BME280;35354;51.296;16.924;2022-10-12T04:41:53;100669.59;;;3.74;100.00
49459;BME280;35354;51.296;16.924;2022-10-12T04:44:18;100660.16;;;3.70;100.00
49459;BME280;35354;51.296;16.924;2022-10-12T04:46:44;100668.75;;;3.69;100.00
49459;BME280;35354;51.296;16.924;2022-10-12T04:49:10;100660.19;;;3.64;100.00
49459;BME280;35354;51.296;16.924;2022-10-12T04:51:35;100681.63;;;3.70;100.00
49459;BME280;35354;51.296;16.924;2022-10-12T04:54:00;100679.06;;;3.69;100.00
49459;BME280;35354;51.296;16.924;2022-10-12T04:56:26;100668.78;;;3.64;100.00
49459;BME280;35354;51.296;16.924;2022-10-12T04:58:51;100690.22;;;3.69;100.00
49459;BME280;35354;51.296;16.924;2022-10-12T05:01:17;100672.22;;;3.63;100.00
49459;BME280;35354;51.296;16.924;2022-10-12T05:03:42;100668.78;;;3.63;100.00
49459;BME280;35354;51.296;16.924;2022-10-12T05:06:07;100670.50;;;3.64;100.00
49459;BME280;35354;51.296;16.924;2022-10-12T05:08:33;100670.50;;;3.64;100.00
49459;BME280;35354;51.296;16.924;2022-10-12T05:10:58;100685.94;;;3.68;100.00
49459;BME280;35354;51.296;16.924;2022-10-12T05:13:24;100678.22;;;3.61;100.00
49459;BME280;35354;51.296;16.924;2022-10-12T05:15:50;100690.22;;;3.68;100.00
49459;BME280;35354;51.296;16.924;2022-10-12T05:18:15;100680.78;;;3.61;100.00
49459;BME280;35354;51.296;16.924;2022-10-12T05:20:41;100698.81;;;3.70;100.00
49459;BME280;35354;51.296;16.924;2022-10-12T05:23:06;100685.94;;;3.64;100.00
49459;BME280;35354;51.296;16.924;2022-10-12T05:25:31;100691.06;;;3.70;100.00
49459;BME280;35354;51.296;16.924;2022-10-12T05:27:59;100695.38;;;3.71;100.00
49459;BME280;35354;51.296;16.924;2022-10-12T05:30:24;100691.06;;;3.73;100.00
49459;BME280;35354;51.296;16.924;2022-10-12T05:32:50;100676.47;;;3.70;100.00
49459;BME280;35354;51.296;16.924;2022-10-12T05:35:15;100686.78;;;3.72;100.00
49459;BME280;35354;51.296;16.924;2022-10-12T05:37:40;100697.09;;;3.77;100.00
49459;BME280;35354;51.296;16.924;2022-10-12T05:40:06;100688.47;;;3.74;100.00
49459;BME280;35354;51.296;16.924;2022-10-12T05:42:32;100695.34;;;3.85;100.00
49459;BME280;35354;51.296;16.924;2022-10-12T05:44:59;100666.19;;;3.75;100.00
49459;BME280;35354;51.296;16.924;2022-10-12T05:47:24;100696.19;;;4.00;100.00
49459;BME280;35354;51.296;16.924;2022-10-12T05:49:50;100687.56;;;4.06;100.00
49459;BME280;35354;51.296;16.924;2022-10-12T05:52:15;100683.22;;;4.13;100.00
49459;BME280;35354;51.296;16.924;2022-10-12T05:54:41;100688.31;;;4.34;100.00
49459;BME280;35354;51.296;16.924;2022-10-12T05:57:06;100682.22;;;4.46;100.00
49459;BME280;35354;51.296;16.924;2022-10-12T05:59:31;100689.84;;;4.67;100.00
49459;BME280;35354;51.296;16.924;2022-10-12T06:01:56;100696.56;;;4.91;100.00
49459;BME280;35354;51.296;16.924;2022-10-12T06:04:22;100697.28;;;5.13;100.00
49459;BME280;35354;51.296;16.924;2022-10-12T06:06:47;100704.84;;;5.35;100.00
49459;BME280;35354;51.296;16.924;2022-10-12T06:09:13;100705.56;;;5.54;100.00
49459;BME280;35354;51.296;16.924;2022-10-12T06:11:38;100702.75;;;5.78;100.00
49459;BME280;35354;51.296;16.924;2022-10-12T06:14:03;100699.09;;;5.99;100.00
49459;BME280;35354;51.296;16.924;2022-10-12T06:16:29;100694.53;;;6.21;100.00
49459;BME280;35354;51.296;16.924;2022-10-12T06:18:54;100693.41;;;6.42;100.00
49459;BME280;35354;51.296;16.924;2022-10-12T06:21:20;100695.56;;;6.74;100.00
49459;BME280;35354;51.296;16.924;2022-10-12T06:23:45;100691.75;;;6.99;100.00
49459;BME280;35354;51.296;16.924;2022-10-12T06:26:10;100698.59;;;7.56;100.00
49459;BME280;35354;51.296;16.924;2022-10-12T06:28:36;100698.53;;;8.04;100.00
49459;BME280;35354;51.296;16.924;2022-10-12T06:31:01;100693.81;;;8.24;99.33
49459;BME280;35354;51.296;16.924;2022-10-12T06:33:27;100701.78;;;8.60;98.34
49459;BME280;35354;51.296;16.924;2022-10-12T06:35:53;100699.06;;;9.04;96.82
49459;BME280;35354;51.296;16.924;2022-10-12T06:38:18;100695.59;;;9.39;96.39
49459;BME280;35354;51.296;16.924;2022-10-12T06:40:44;100694.84;;;10.00;95.18
49459;BME280;35354;51.296;16.924;2022-10-12T06:43:09;100690.69;;;10.56;92.63
49459;BME280;35354;51.296;16.924;2022-10-12T06:45:35;100696.06;;;10.79;90.95
49459;BME280;35354;51.296;16.924;2022-10-12T06:48:01;100711.56;;;11.38;89.72
49459;BME280;35354;51.296;16.924;2022-10-12T06:50:27;100704.22;;;11.74;87.66
49459;BME280;35354;51.296;16.924;2022-10-12T06:52:53;100698.94;;;12.03;87.09
49459;BME280;35354;51.296;16.924;2022-10-12T06:55:19;100700.16;;;12.63;86.70
49459;BME280;35354;51.296;16.924;2022-10-12T06:57:44;100703.06;;;14.64;80.74
49459;BME280;35354;51.296;16.924;2022-10-12T07:00:10;100681.69;;;16.12;73.52
49459;BME280;35354;51.296;16.924;2022-10-12T07:02:37;100697.59;;;15.93;72.11
49459;BME280;35354;51.296;16.924;2022-10-12T07:05:02;100705.69;;;15.54;72.70
49459;BME280;35354;51.296;16.924;2022-10-12T07:07:30;100711.63;;;15.57;72.85
49459;BME280;35354;51.296;16.924;2022-10-12T07:09:57;100710.28;;;15.67;72.12
49459;BME280;35354;51.296;16.924;2022-10-12T07:12:22;100711.09;;;15.51;72.31
49459;BME280;35354;51.296;16.924;2022-10-12T07:14:47;100703.41;;;15.11;73.05
49459;BME280;35354;51.296;16.924;2022-10-12T07:17:13;100711.72;;;15.02;73.97
49459;BME280;35354;51.296;16.924;2022-10-12T07:19:38;100701.06;;;14.88;73.96
49459;BME280;35354;51.296;16.924;2022-10-12T07:22:03;100703.53;;;14.72;74.54
49459;BME280;35354;51.296;16.924;2022-10-12T07:24:30;100711.00;;;14.62;75.20
49459;BME280;35354;51.296;16.924;2022-10-12T07:27:01;100709.78;;;14.51;75.87
49459;BME280;35354;51.296;16.924;2022-10-12T07:29:31;100695.56;;;14.36;76.16
49459;BME280;35354;51.296;16.924;2022-10-12T07:31:58;100699.91;;;14.37;76.60
49459;BME280;35354;51.296;16.924;2022-10-12T07:34:24;100696.50;;;14.35;76.96
49459;BME280;35354;51.296;16.924;2022-10-12T07:36:49;100706.63;;;14.42;77.68
49459;BME280;35354;51.296;16.924;2022-10-12T07:39:15;100701.53;;;14.39;77.47
49459;BME280;35354;51.296;16.924;2022-10-12T07:41:40;100703.78;;;14.47;77.28
49459;BME280;35354;51.296;16.924;2022-10-12T07:44:05;100697.75;;;14.45;77.50
49459;BME280;35354;51.296;16.924;2022-10-12T07:46:31;100700.59;;;14.40;77.93
49459;BME280;35354;51.296;16.924;2022-10-12T07:48:56;100694.66;;;14.37;78.23
49459;BME280;35354;51.296;16.924;2022-10-12T07:51:22;100711.03;;;14.42;78.34
49459;BME280;35354;51.296;16.924;2022-10-12T07:53:47;100705.19;;;14.35;78.44
49459;BME280;35354;51.296;16.924;2022-10-12T07:56:13;100702.31;;;14.41;78.52
49459;BME280;35354;51.296;16.924;2022-10-12T07:58:52;100711.75;;;14.45;78.28
49459;BME280;35354;51.296;16.924;2022-10-12T08:01:19;100697.28;;;14.37;78.26
49459;BME280;35354;51.296;16.924;2022-10-12T08:03:45;100707.81;;;14.35;78.54
49459;BME280;35354;51.296;16.924;2022-10-12T08:06:13;100711.88;;;14.42;78.44
49459;BME280;35354;51.296;16.924;2022-10-12T08:08:39;100706.63;;;14.42;78.77
49459;BME280;35354;51.296;16.924;2022-10-12T08:11:05;100703.44;;;14.36;78.83
49459;BME280;35354;51.296;16.924;2022-10-12T08:13:31;100699.97;;;14.35;78.95
49459;BME280;35354;51.296;16.924;2022-10-12T08:15:58;100716.53;;;14.36;79.49
49459;BME280;35354;51.296;16.924;2022-10-12T08:18:23;100702.88;;;14.29;79.86
49459;BME280;35354;51.296;16.924;2022-10-12T08:20:49;100709.09;;;14.27;80.26
49459;BME280;35354;51.296;16.924;2022-10-12T08:23:14;100705.75;;;14.23;80.65
49459;BME280;35354;51.296;16.924;2022-10-12T08:25:39;100696.28;;;14.20;80.46
49459;BME280;35354;51.296;16.924;2022-10-12T08:28:05;100699.94;;;14.16;80.40
49459;BME280;35354;51.296;16.924;2022-10-12T08:30:32;100707.00;;;14.14;80.33
49459;BME280;35354;51.296;16.924;2022-10-12T08:32:57;100706.09;;;14.15;80.25
49459;BME280;35354;51.296;16.924;2022-10-12T08:35:23;100705.19;;;14.16;80.37
49459;BME280;35354;51.296;16.924;2022-10-12T08:37:48;100714.88;;;14.14;80.54
49459;BME280;35354;51.296;16.924;2022-10-12T08:40:19;100716.97;;;14.06;79.66
49459;BME280;35354;51.296;16.924;2022-10-12T08:43:05;100717.47;;;13.75;77.80
49459;BME280;35354;51.296;16.924;2022-10-12T08:48:28;100712.97;;;13.79;79.61
49459;BME280;35354;51.296;16.924;2022-10-12T08:51:10;100712.81;;;13.82;79.67
49459;BME280;35354;51.296;16.924;2022-10-12T08:54:12;100713.53;;;13.85;78.95
49459;BME280;35354;51.296;16.924;2022-10-12T08:56:38;100706.88;;;13.78;78.73
49459;BME280;35354;51.296;16.924;2022-10-12T08:59:08;100705.94;;;13.79;79.18
49459;BME280;35354;51.296;16.924;2022-10-12T09:01:49;100706.47;;;13.67;78.26
49459;BME280;35354;51.296;16.924;2022-10-12T09:04:32;100706.78;;;13.59;78.55
49459;BME280;35354;51.296;16.924;2022-10-12T09:07:13;100699.66;;;13.63;78.65
49459;BME280;35354;51.296;16.924;2022-10-12T09:09:57;100703.31;;;13.59;77.81
49459;BME280;35354;51.296;16.924;2022-10-12T09:14:55;100702.25;;;13.20;75.83
49459;BME280;35354;51.296;16.924;2022-10-12T09:17:31;100704.44;;;13.09;74.62
49459;BME280;35354;51.296;16.924;2022-10-12T09:23:30;100707.69;;;12.94;75.00
49459;BME280;35354;51.296;16.924;2022-10-12T09:25:59;100707.22;;;13.06;75.69
49459;BME280;35354;51.296;16.924;2022-10-12T09:28:35;100700.31;;;13.04;74.72
49459;BME280;35354;51.296;16.924;2022-10-12T09:33:56;100700.75;;;12.93;75.27
49459;BME280;35354;51.296;16.924;2022-10-12T09:36:24;100687.44;;;12.99;74.44
49459;BME280;35354;51.296;16.924;2022-10-12T09:38:51;100690.59;;;13.07;74.45
49459;BME280;35354;51.296;16.924;2022-10-12T09:41:22;100690.28;;;13.15;74.47
49459;BME280;35354;51.296;16.924;2022-10-12T09:43:51;100700.09;;;13.32;75.21
49459;BME280;35354;51.296;16.924;2022-10-12T09:49:05;100701.94;;;13.50;75.30
49459;BME280;35354;51.296;16.924;2022-10-12T09:51:30;100693.91;;;13.55;75.57
49459;BME280;35354;51.296;16.924;2022-10-12T09:53:57;100696.59;;;13.53;73.80
49459;BME280;35354;51.296;16.924;2022-10-12T09:56:38;100702.66;;;13.54;73.76
49459;BME280;35354;51.296;16.924;2022-10-12T09:59:16;100694.00;;;13.52;73.37
49459;BME280;35354;51.296;16.924;2022-10-12T10:01:56;100696.44;;;13.56;73.45
49459;BME280;35354;51.296;16.924;2022-10-12T10:04:23;100700.63;;;13.60;73.72
49459;BME280;35354;51.296;16.924;2022-10-12T10:06:49;100689.06;;;13.66;74.27
49459;BME280;35354;51.296;16.924;2022-10-12T10:09:28;100694.94;;;13.71;72.93
49459;BME280;35354;51.296;16.924;2022-10-12T10:11:55;100681.66;;;13.55;72.36
49459;BME280;35354;51.296;16.924;2022-10-12T10:14:21;100672.97;;;13.55;72.56
49459;BME280;35354;51.296;16.924;2022-10-12T10:16:50;100692.53;;;13.66;73.39
49459;BME280;35354;51.296;16.924;2022-10-12T10:19:20;100677.59;;;13.68;73.97
49459;BME280;35354;51.296;16.924;2022-10-12T10:21:47;100681.75;;;13.74;73.65
49459;BME280;35354;51.296;16.924;2022-10-12T10:24:29;100695.19;;;13.85;73.29
49459;BME280;35354;51.296;16.924;2022-10-12T10:27:00;100694.31;;;13.86;72.18
49459;BME280;35354;51.296;16.924;2022-10-12T10:29:38;100676.34;;;13.77;71.33
49459;BME280;35354;51.296;16.924;2022-10-12T10:32:22;100679.66;;;13.62;70.50
49459;BME280;35354;51.296;16.924;2022-10-12T10:35:17;100675.91;;;13.67;70.85
49459;BME280;35354;51.296;16.924;2022-10-12T10:37:54;100676.53;;;13.72;70.97
49459;BME280;35354;51.296;16.924;2022-10-12T10:40:24;100682.31;;;13.81;71.32
49459;BME280;35354;51.296;16.924;2022-10-12T10:42:53;100672.22;;;13.71;70.74
49459;BME280;35354;51.296;16.924;2022-10-12T10:45:25;100676.88;;;13.85;70.77
49459;BME280;35354;51.296;16.924;2022-10-12T10:47:53;100657.13;;;13.78;70.24
49459;BME280;35354;51.296;16.924;2022-10-12T10:50:35;100661.16;;;13.85;70.08
49459;BME280;35354;51.296;16.924;2022-10-12T10:53:06;100663.78;;;13.85;70.15
49459;BME280;35354;51.296;16.924;2022-10-12T11:01:02;100656.25;;;14.17;70.22
49459;BME280;35354;51.296;16.924;2022-10-12T11:03:45;100653.28;;;14.25;69.96
49459;BME280;35354;51.296;16.924;2022-10-12T11:06:43;100654.47;;;14.36;69.93
49459;BME280;35354;51.296;16.924;2022-10-12T11:11:39;100655.41;;;14.35;68.99
49459;BME280;35354;51.296;16.924;2022-10-12T11:14:13;100647.38;;;14.01;68.90
49459;BME280;35354;51.296;16.924;2022-10-12T11:16:45;100648.22;;;13.82;68.40
49459;BME280;35354;51.296;16.924;2022-10-12T11:21:56;100642.91;;;14.03;68.99
49459;BME280;35354;51.296;16.924;2022-10-12T11:24:27;100641.50;;;14.14;67.26
49459;BME280;35354;51.296;16.924;2022-10-12T11:27:00;100639.97;;;14.29;67.96
49459;BME280;35354;51.296;16.924;2022-10-12T11:29:27;100637.19;;;14.32;67.82
49459;BME280;35354;51.296;16.924;2022-10-12T11:34:21;100646.97;;;14.47;68.37
49459;BME280;35354;51.296;16.924;2022-10-12T11:36:50;100641.47;;;14.54;68.83
49459;BME280;35354;51.296;16.924;2022-10-12T11:39:38;100637.13;;;14.71;68.87
49459;BME280;35354;51.296;16.924;2022-10-12T11:42:06;100631.34;;;14.82;68.54
49459;BME280;35354;51.296;16.924;2022-10-12T11:44:42;100634.81;;;14.83;67.80
49459;BME280;35354;51.296;16.924;2022-10-12T11:49:53;100636.03;;;14.58;66.80
49459;BME280;35354;51.296;16.924;2022-10-12T11:52:22;100640.03;;;14.46;68.29
49459;BME280;35354;51.296;16.924;2022-10-12T11:55:18;100633.72;;;14.32;69.15
49459;BME280;35354;51.296;16.924;2022-10-12T11:57:48;100623.81;;;14.19;69.73
49459;BME280;35354;51.296;16.924;2022-10-12T12:00:19;100633.88;;;14.10;70.19
49459;BME280;35354;51.296;16.924;2022-10-12T12:02:51;100632.94;;;13.92;69.59
49459;BME280;35354;51.296;16.924;2022-10-12T12:05:19;100625.00;;;13.93;69.54
49459;BME280;35354;51.296;16.924;2022-10-12T12:07:53;100626.44;;;14.01;69.61
49459;BME280;35354;51.296;16.924;2022-10-12T12:10:42;100629.81;;;14.03;68.72
49459;BME280;35354;51.296;16.924;2022-10-12T12:23:24;100610.88;;;13.77;69.88
49459;BME280;35354;51.296;16.924;2022-10-12T12:28:35;100622.72;;;13.86;68.30
49459;BME280;35354;51.296;16.924;2022-10-12T12:31:04;100612.03;;;13.90;68.20
49459;BME280;35354;51.296;16.924;2022-10-12T12:33:33;100613.53;;;13.96;68.29
49459;BME280;35354;51.296;16.924;2022-10-12T12:38:51;100615.81;;;14.22;68.64
49459;BME280;35354;51.296;16.924;2022-10-12T12:41:23;100605.06;;;14.29;67.79
49459;BME280;35354;51.296;16.924;2022-10-12T12:43:55;100612.13;;;14.45;67.65
49459;BME280;35354;51.296;16.924;2022-10-12T12:46:21;100613.88;;;14.45;68.00
49459;BME280;35354;51.296;16.924;2022-10-12T12:51:16;100611.06;;;14.31;65.94
49459;BME280;35354;51.296;16.924;2022-10-12T12:53:58;100597.19;;;14.10;65.83
49459;BME280;35354;51.296;16.924;2022-10-12T12:56:37;100616.81;;;14.20;67.07
49459;BME280;35354;51.296;16.924;2022-10-12T12:59:26;100609.59;;;14.25;68.45
49459;BME280;35354;51.296;16.924;2022-10-12T13:02:22;100599.81;;;14.29;68.37
49459;BME280;35354;51.296;16.924;2022-10-12T13:16:27;100598.34;;;14.04;68.08
49459;BME280;35354;51.296;16.924;2022-10-12T13:19:16;100575.03;;;13.98;68.09
49459;BME280;35354;51.296;16.924;2022-10-12T13:21:45;100585.53;;;14.17;68.23
49459;BME280;35354;51.296;16.924;2022-10-12T13:24:31;100585.31;;;14.21;67.19
49459;BME280;35354;51.296;16.924;2022-10-12T13:33:03;100570.03;;;14.12;65.63
49459;BME280;35354;51.296;16.924;2022-10-12T13:38:18;100576.44;;;14.05;65.79
49459;BME280;35354;51.296;16.924;2022-10-12T13:40:56;100560.16;;;13.98;65.18
49459;BME280;35354;51.296;16.924;2022-10-12T13:45:52;100571.28;;;14.04;65.83
49459;BME280;35354;51.296;16.924;2022-10-12T13:48:20;100565.25;;;14.02;64.83
49459;BME280;35354;51.296;16.924;2022-10-12T13:50:57;100573.06;;;14.03;65.58
49459;BME280;35354;51.296;16.924;2022-10-12T13:53:24;100552.59;;;13.92;65.62
49459;BME280;35354;51.296;16.924;2022-10-12T13:56:20;100567.16;;;13.98;65.14
49459;BME280;35354;51.296;16.924;2022-10-12T13:58:47;100561.38;;;13.91;65.78
49459;BME280;35354;51.296;16.924;2022-10-12T14:01:13;100570.00;;;13.93;66.98
49459;BME280;35354;51.296;16.924;2022-10-12T14:03:40;100553.78;;;13.85;66.52
49459;BME280;35354;51.296;16.924;2022-10-12T14:06:23;100554.72;;;13.84;67.35
49459;BME280;35354;51.296;16.924;2022-10-12T14:08:49;100553.22;;;13.79;66.75
49459;BME280;35354;51.296;16.924;2022-10-12T14:11:15;100555.78;;;13.80;66.23
49459;BME280;35354;51.296;16.924;2022-10-12T14:13:42;100548.22;;;13.74;66.95
49459;BME280;35354;51.296;16.924;2022-10-12T14:16:10;100552.53;;;13.75;67.62
49459;BME280;35354;51.296;16.924;2022-10-12T14:18:44;100554.50;;;13.70;67.78